createdAt,value
2023-03-04T00:00:25.322Z,60.60
2023-03-04T00:02:53.442Z,60.60
2023-03-04T00:05:22.044Z,60.60
2023-03-04T00:07:51.539Z,60.80
2023-03-04T00:10:20.307Z,60.80
2023-03-04T00:12:48.423Z,60.90
2023-03-04T00:15:17.020Z,61.00
2023-03-04T00:17:46.201Z,61.00
2023-03-04T00:20:15.777Z,61.00
2023-03-04T00:22:44.306Z,61.20
2023-03-04T00:25:13.948Z,61.10
2023-03-04T00:27:42.487Z,61.30
2023-03-04T00:30:11.838Z,61.10
2023-03-04T00:32:40.458Z,61.30
2023-03-04T00:35:09.632Z,61.40
2023-03-04T00:37:38.154Z,61.50
2023-03-04T00:40:07.874Z,61.50
2023-03-04T00:42:37.278Z,61.70
2023-03-04T00:45:06.952Z,61.70
2023-03-04T00:47:35.486Z,61.70
2023-03-04T00:50:03.625Z,61.80
2023-03-04T00:52:31.745Z,61.70
2023-03-04T00:54:59.877Z,61.80
2023-03-04T00:57:27.988Z,61.90
2023-03-04T00:59:57.468Z,61.90
2023-03-04T01:02:26.128Z,61.70
2023-03-04T01:04:54.237Z,61.90
2023-03-04T01:07:22.431Z,62.00
2023-03-04T01:09:50.798Z,61.90
2023-03-04T01:12:18.931Z,62.00
2023-03-04T01:14:47.502Z,62.10
2023-03-04T01:17:16.958Z,62.00
2023-03-04T01:19:45.112Z,61.90
2023-03-04T01:22:15.624Z,61.80
2023-03-04T01:24:44.533Z,61.80
2023-03-04T01:27:13.951Z,61.70
2023-03-04T01:29:42.010Z,61.80
2023-03-04T01:32:10.601Z,61.70
2023-03-04T01:34:40.663Z,61.70
2023-03-04T01:37:09.414Z,61.90
2023-03-04T01:39:37.490Z,61.90
2023-03-04T01:42:06.150Z,61.80
2023-03-04T01:44:34.549Z,63.00
2023-03-04T01:47:03.144Z,62.20
2023-03-04T01:49:31.819Z,62.30
2023-03-04T01:52:01.764Z,62.30
2023-03-04T01:54:29.860Z,62.60
2023-03-04T01:57:00.720Z,62.50
2023-03-04T01:59:33.083Z,62.70
2023-03-04T02:02:02.152Z,62.70
2023-03-04T02:04:34.917Z,62.70
2023-03-04T02:07:06.178Z,62.80
2023-03-04T02:09:35.796Z,62.90
2023-03-04T02:12:04.183Z,62.80
2023-03-04T02:14:32.524Z,62.90
2023-03-04T02:17:01.101Z,62.80
2023-03-04T02:19:42.901Z,62.90
2023-03-04T02:22:12.927Z,63.20
2023-03-04T02:24:45.456Z,63.10
2023-03-04T02:27:15.451Z,63.20
2023-03-04T02:29:44.060Z,63.20
2023-03-04T02:32:13.769Z,63.30
2023-03-04T02:34:47.235Z,63.30
2023-03-04T02:37:15.799Z,63.50
2023-03-04T02:39:46.013Z,63.50
2023-03-04T02:42:15.537Z,63.50
2023-03-04T02:44:48.136Z,63.50
2023-03-04T02:47:19.357Z,63.60
2023-03-04T02:49:48.447Z,63.80
2023-03-04T02:52:20.277Z,63.80
2023-03-04T02:54:48.849Z,64.00
2023-03-04T02:57:18.927Z,63.80
2023-03-04T02:59:47.471Z,64.00
2023-03-04T03:02:16.022Z,63.90
2023-03-04T03:04:44.157Z,63.90
2023-03-04T03:07:12.745Z,64.20
2023-03-04T03:09:40.864Z,64.20
2023-03-04T03:12:09.692Z,64.20
2023-03-04T03:14:39.154Z,64.20
2023-03-04T03:17:07.690Z,64.50
2023-03-04T03:19:36.248Z,64.60
2023-03-04T03:22:04.362Z,64.70
2023-03-04T03:24:32.659Z,64.80
2023-03-04T03:27:01.275Z,64.80
2023-03-04T03:30:10.616Z,65.90
2023-03-04T03:32:40.460Z,65.60
2023-03-04T03:35:08.951Z,65.00
2023-03-04T03:37:37.433Z,65.10
2023-03-04T03:40:06.911Z,65.00
2023-03-04T03:42:35.510Z,65.00
2023-03-04T03:45:03.757Z,64.90
2023-03-04T03:47:31.881Z,65.00
2023-03-04T03:50:01.318Z,65.10
2023-03-04T03:52:29.875Z,65.30
2023-03-04T03:55:00.640Z,65.30
2023-03-04T03:57:30.652Z,65.50
2023-03-04T03:59:58.715Z,65.70
2023-03-04T04:02:27.502Z,65.70
2023-03-04T04:04:56.182Z,65.90
2023-03-04T04:07:25.620Z,66.00
2023-03-04T04:09:54.180Z,66.00
2023-03-04T04:12:22.270Z,66.00
2023-03-04T04:14:50.880Z,66.00
2023-03-04T04:17:18.982Z,65.90
2023-03-04T04:19:47.028Z,65.90
2023-03-04T04:22:17.952Z,66.10
2023-03-04T04:24:47.714Z,66.30
2023-03-04T04:27:16.367Z,66.20
2023-03-04T04:29:44.901Z,66.10
2023-03-04T04:32:13.270Z,66.00
2023-03-04T04:34:41.907Z,65.90
2023-03-04T04:37:10.076Z,66.10
2023-03-04T04:39:38.706Z,66.10
2023-03-04T04:42:08.290Z,66.30
2023-03-04T04:44:38.954Z,66.40
2023-03-04T04:47:07.923Z,66.40
2023-03-04T04:49:36.507Z,66.60
2023-03-04T04:52:04.885Z,66.50
2023-03-04T04:54:33.738Z,66.60
2023-03-04T04:57:02.342Z,66.80
2023-03-04T04:59:32.304Z,66.90
2023-03-04T05:02:00.382Z,67.00
2023-03-04T05:04:29.140Z,67.00
2023-03-04T05:06:57.708Z,67.10
2023-03-04T05:09:25.859Z,67.20
2023-03-04T05:11:54.679Z,67.20
2023-03-04T05:14:23.651Z,67.30
2023-03-04T05:16:53.299Z,67.50
2023-03-04T05:19:22.224Z,67.60
2023-03-04T05:21:50.820Z,67.50
2023-03-04T05:24:18.940Z,67.50
2023-03-04T05:26:47.140Z,67.50
2023-03-04T05:29:15.799Z,67.50
2023-03-04T05:31:43.919Z,67.40
2023-03-04T05:34:13.407Z,67.50
2023-03-04T05:36:42.015Z,67.50
2023-03-04T05:39:10.624Z,67.60
2023-03-04T05:41:39.229Z,67.70
2023-03-04T05:44:07.338Z,67.70
2023-03-04T05:46:35.993Z,67.90
2023-03-04T05:49:04.864Z,68.00
2023-03-04T05:51:34.353Z,68.00
2023-03-04T05:54:02.918Z,68.20
2023-03-04T05:56:31.757Z,68.10
2023-03-04T05:59:00.426Z,68.20
2023-03-04T06:01:28.600Z,68.40
2023-03-04T06:03:57.226Z,68.40
2023-03-04T06:06:25.803Z,68.80
2023-03-04T06:08:55.937Z,68.80
2023-03-04T06:11:24.059Z,68.90
2023-03-04T06:13:52.789Z,68.90
2023-03-04T06:16:21.408Z,69.00
2023-03-04T06:18:49.733Z,69.10
2023-03-04T06:21:18.314Z,69.20
2023-03-04T06:23:47.662Z,69.80
2023-03-04T06:26:17.387Z,69.40
2023-03-04T06:28:46.604Z,69.50
2023-03-04T06:31:15.249Z,69.60
2023-03-04T06:33:43.447Z,69.30
2023-03-04T06:36:12.024Z,69.50
2023-03-04T06:38:40.596Z,69.50
2023-03-04T06:41:09.906Z,69.60
2023-03-04T06:43:40.568Z,69.60
2023-03-04T06:46:09.348Z,69.70
2023-03-04T06:48:37.978Z,69.70
2023-03-04T06:51:10.767Z,69.60
2023-03-04T06:53:40.331Z,69.80
2023-03-04T06:56:10.452Z,69.60
2023-03-04T06:58:40.348Z,69.80
2023-03-04T07:01:16.834Z,69.60
2023-03-04T07:03:45.408Z,69.70
2023-03-04T07:06:14.569Z,69.50
2023-03-04T07:08:43.735Z,69.50
2023-03-04T07:11:12.343Z,69.40
2023-03-04T07:13:41.955Z,69.40
2023-03-04T07:16:12.720Z,69.40
2023-03-04T07:18:41.487Z,69.40
2023-03-04T07:21:09.777Z,69.30
2023-03-04T07:23:38.575Z,69.20
2023-03-04T07:26:07.209Z,69.30
2023-03-04T07:28:36.660Z,69.30
2023-03-04T07:31:14.146Z,69.40
2023-03-04T07:33:43.064Z,69.60
2023-03-04T07:36:11.289Z,69.40
2023-03-04T07:38:39.843Z,69.40
2023-03-04T07:41:08.377Z,69.50
2023-03-04T07:43:36.922Z,69.40
2023-03-04T07:46:05.164Z,69.60
2023-03-04T07:48:35.035Z,69.60
2023-03-04T07:51:11.895Z,69.60
2023-03-04T07:53:42.198Z,69.80
2023-03-04T07:56:13.967Z,69.80
2023-03-04T07:58:42.531Z,69.80
2023-03-04T08:01:12.251Z,69.70
2023-03-04T08:03:42.122Z,69.80
2023-03-04T08:06:12.932Z,69.70
2023-03-04T08:08:41.881Z,69.70
2023-03-04T08:11:12.576Z,69.60
2023-03-04T08:13:41.233Z,69.70
2023-03-04T08:16:09.921Z,69.60
2023-03-04T08:18:39.733Z,69.60
2023-03-04T08:21:12.370Z,69.60
2023-03-04T08:23:42.548Z,69.80
2023-03-04T08:26:13.530Z,69.70
2023-03-04T08:28:42.293Z,69.70
2023-03-04T08:31:10.534Z,69.60
2023-03-04T08:33:38.706Z,69.50
2023-03-04T08:36:07.671Z,69.50
2023-03-04T08:38:37.510Z,69.50
2023-03-04T08:41:06.516Z,69.70
2023-03-04T08:43:35.137Z,69.70
2023-03-04T08:46:05.098Z,69.60
2023-03-04T08:48:33.376Z,69.50
2023-03-04T08:51:02.347Z,69.50
2023-03-04T08:53:30.411Z,69.50
2023-03-04T08:56:00.355Z,69.60
2023-03-04T08:58:28.414Z,69.70
2023-03-04T09:00:57.212Z,69.60
2023-03-04T09:03:25.377Z,69.50
2023-03-04T09:05:53.997Z,69.50
2023-03-04T09:08:22.596Z,70.30
2023-03-04T09:10:54.495Z,69.30
2023-03-04T09:13:26.338Z,69.30
2023-03-04T09:15:54.970Z,70.00
2023-03-04T09:18:24.588Z,68.90
2023-03-04T09:20:54.070Z,68.80
2023-03-04T09:23:23.167Z,68.90
2023-03-04T09:25:51.852Z,68.90
2023-03-04T09:28:20.863Z,68.70
2023-03-04T09:30:50.802Z,68.70
2023-03-04T09:33:19.799Z,68.60
2023-03-04T09:35:49.348Z,68.60
2023-03-04T09:38:17.415Z,68.60
2023-03-04T09:40:48.438Z,68.50
2023-03-04T09:43:21.552Z,68.50
2023-03-04T09:45:54.300Z,68.60
2023-03-04T09:48:26.071Z,68.50
2023-03-04T09:51:07.849Z,68.40
2023-03-04T09:53:48.740Z,68.40
2023-03-04T09:56:17.144Z,68.20
2023-03-04T09:58:55.529Z,68.20
2023-03-04T10:01:32.376Z,68.10
2023-03-04T10:04:05.301Z,68.90
2023-03-04T10:06:33.836Z,67.90
2023-03-04T10:09:04.543Z,67.90
2023-03-04T10:11:37.153Z,67.80
2023-03-04T10:14:20.984Z,67.80
2023-03-04T10:16:53.755Z,67.80
2023-03-04T10:19:38.543Z,67.70
2023-03-04T10:22:18.348Z,67.60
2023-03-04T10:24:47.713Z,67.50
2023-03-04T10:27:19.748Z,67.20
2023-03-04T10:29:49.078Z,67.30
2023-03-04T10:32:21.805Z,67.10
2023-03-04T10:34:50.417Z,67.10
2023-03-04T10:37:19.007Z,67.00
2023-03-04T10:39:49.405Z,67.00
2023-03-04T10:42:37.588Z,67.10
2023-03-04T10:45:20.649Z,67.10
2023-03-04T10:47:55.328Z,66.90
2023-03-04T10:50:25.373Z,66.80
2023-03-04T10:52:55.753Z,66.80
2023-03-04T10:55:27.034Z,66.80
2023-03-04T10:57:58.080Z,66.90
2023-03-04T11:00:32.406Z,66.80
2023-03-04T11:03:31.328Z,66.90
2023-03-04T11:06:13.564Z,66.80
2023-03-04T11:08:42.983Z,66.70
2023-03-04T11:11:29.958Z,66.70
2023-03-04T11:14:01.537Z,66.70
2023-03-04T11:16:32.526Z,66.70
2023-03-04T11:19:07.308Z,66.60
2023-03-04T11:21:40.764Z,66.60
2023-03-04T11:24:27.768Z,66.70
2023-03-04T11:27:04.229Z,66.60
2023-03-04T11:29:38.005Z,66.60
2023-03-04T11:32:12.665Z,66.60
2023-03-04T11:34:49.378Z,66.50
2023-03-04T11:37:23.873Z,66.50
2023-03-04T11:39:55.786Z,66.50
2023-03-04T11:42:33.505Z,66.50
2023-03-04T11:45:02.414Z,66.60
2023-03-04T11:47:49.013Z,66.50
2023-03-04T11:50:36.936Z,66.60
2023-03-04T11:53:33.147Z,66.70
2023-03-04T11:56:18.432Z,66.80
2023-03-04T11:59:31.950Z,66.70
2023-03-04T12:02:14.867Z,66.70
2023-03-04T12:05:08.879Z,66.60
2023-03-04T12:07:49.759Z,66.60
2023-03-04T12:10:27.393Z,66.70
2023-03-04T12:13:34.861Z,66.60
2023-03-04T12:16:22.545Z,66.70
2023-03-04T12:19:03.855Z,66.60
2023-03-04T12:22:12.597Z,66.50
2023-03-04T12:24:59.098Z,66.70
2023-03-04T12:27:32.655Z,66.60
2023-03-04T12:30:06.891Z,66.50
2023-03-04T12:32:44.240Z,66.40
2023-03-04T12:35:30.256Z,66.30
2023-03-04T12:38:24.943Z,66.30
2023-03-04T12:41:05.884Z,66.30
2023-03-04T12:43:48.221Z,66.20
2023-03-04T12:46:28.713Z,66.20
2023-03-04T12:49:17.390Z,66.20
2023-03-04T12:51:49.595Z,66.40
2023-03-04T12:54:27.560Z,66.40
2023-03-04T12:57:01.626Z,66.50
2023-03-04T12:59:35.897Z,66.50
2023-03-04T13:02:30.440Z,66.50
2023-03-04T13:05:09.060Z,66.50
2023-03-04T13:07:43.798Z,66.30
2023-03-04T13:10:14.474Z,66.40
2023-03-04T13:12:52.128Z,66.30
2023-03-04T13:15:37.270Z,66.50
2023-03-04T13:18:35.137Z,66.30
2023-03-04T13:21:22.900Z,66.30
2023-03-04T13:23:51.732Z,66.30
2023-03-04T13:26:25.610Z,66.20
2023-03-04T13:28:55.717Z,66.30
2023-03-04T13:31:28.562Z,66.30
2023-03-04T13:34:04.009Z,66.30
2023-03-04T13:36:59.176Z,66.30
2023-03-04T13:39:33.593Z,66.40
2023-03-04T13:42:01.996Z,66.30
2023-03-04T13:44:36.353Z,66.30
2023-03-04T13:47:15.578Z,66.50
2023-03-04T13:49:45.195Z,66.50
2023-03-04T13:52:44.863Z,66.50
2023-03-04T13:55:33.905Z,66.50
2023-03-04T13:58:03.221Z,66.60
2023-03-04T14:00:33.086Z,66.50
2023-03-04T14:03:15.176Z,66.50
2023-03-04T14:05:44.680Z,66.60
2023-03-04T14:08:19.728Z,66.40
2023-03-04T14:10:57.317Z,67.40
2023-03-04T14:13:26.566Z,67.10
2023-03-04T14:15:58.842Z,66.40
2023-03-04T14:18:28.639Z,66.50
2023-03-04T14:21:01.700Z,66.50
2023-03-04T14:23:31.958Z,66.50
2023-03-04T14:26:14.223Z,66.40
2023-03-04T14:28:48.274Z,66.40
2023-03-04T14:31:19.302Z,66.20
2023-03-04T14:33:50.470Z,66.20
2023-03-04T14:36:24.682Z,66.20
2023-03-04T14:38:58.963Z,66.40
2023-03-04T14:41:31.056Z,66.40
2023-03-04T14:44:09.944Z,66.30
2023-03-04T14:46:42.145Z,66.10
2023-03-04T14:49:14.286Z,66.20
2023-03-04T14:51:48.018Z,66.20
2023-03-04T14:54:28.636Z,66.20
2023-03-04T14:56:57.349Z,66.30
2023-03-04T14:59:33.345Z,66.10
2023-03-04T15:02:31.211Z,66.20
2023-03-04T15:05:02.408Z,66.20
2023-03-04T15:07:36.870Z,66.10
2023-03-04T15:10:08.696Z,66.20
2023-03-04T15:12:39.010Z,66.10
2023-03-04T15:15:35.050Z,66.00
2023-03-04T15:18:04.278Z,66.00
2023-03-04T15:20:33.609Z,65.90
2023-03-04T15:23:07.193Z,65.80
2023-03-04T15:25:37.272Z,65.80
2023-03-04T15:28:08.201Z,65.70
2023-03-04T15:30:36.311Z,65.70
2023-03-04T15:33:05.052Z,65.80
2023-03-04T15:35:34.506Z,65.70
2023-03-04T15:38:05.843Z,65.70
2023-03-04T15:40:38.401Z,66.60
2023-03-04T15:43:10.061Z,65.70
2023-03-04T15:45:39.410Z,65.70
2023-03-04T15:48:10.158Z,65.60
2023-03-04T15:50:40.877Z,65.60
2023-03-04T15:53:14.973Z,65.70
2023-03-04T15:55:46.164Z,65.70
2023-03-04T15:58:15.377Z,65.70
2023-03-04T16:00:44.242Z,65.70
2023-03-04T16:03:17.354Z,65.70
2023-03-04T16:05:46.893Z,65.70
2023-03-04T16:08:19.567Z,65.70
2023-03-04T16:10:48.707Z,65.80
2023-03-04T16:13:19.573Z,65.90
2023-03-04T16:15:48.239Z,65.70
2023-03-04T16:18:18.411Z,65.70
2023-03-04T16:20:50.368Z,65.90
2023-03-04T16:23:23.142Z,65.90
2023-03-04T16:25:55.064Z,65.90
2023-03-04T16:28:23.384Z,65.90
2023-03-04T16:30:52.097Z,65.80
2023-03-04T16:33:20.256Z,65.90
2023-03-04T16:35:48.600Z,65.90
2023-03-04T16:38:26.058Z,66.00
2023-03-04T16:40:55.535Z,66.10
2023-03-04T16:43:24.053Z,66.10
2023-03-04T16:45:52.901Z,66.30
2023-03-04T16:48:21.835Z,66.30
2023-03-04T16:50:49.994Z,66.40
2023-03-04T16:53:33.062Z,66.30
2023-03-04T16:56:06.042Z,66.50
2023-03-04T16:58:34.171Z,66.40
2023-03-04T17:04:52.841Z,66.60
2023-03-04T17:07:21.330Z,66.40
2023-03-04T17:09:51.192Z,66.40
2023-03-04T17:12:20.794Z,66.40
2023-03-04T17:14:48.914Z,66.40
2023-03-04T17:17:18.453Z,66.40
2023-03-04T17:19:46.863Z,66.50
2023-03-04T17:22:18.014Z,66.60
2023-03-04T17:24:46.553Z,66.60
2023-03-04T17:27:17.615Z,66.60
2023-03-04T17:29:45.759Z,66.60
2023-03-04T17:32:13.912Z,66.60
2023-03-04T17:34:42.669Z,66.60
2023-03-04T17:37:10.757Z,66.70
2023-03-04T17:39:40.212Z,66.70
2023-03-04T17:42:08.851Z,66.60
2023-03-04T17:44:38.311Z,66.60
2023-03-04T17:47:06.720Z,66.70
2023-03-04T17:49:35.135Z,66.70
2023-03-04T17:52:06.234Z,66.80
2023-03-04T17:54:36.038Z,66.90
2023-03-04T17:57:04.632Z,67.00
2023-03-04T17:59:32.698Z,67.90
2023-03-04T18:02:02.219Z,66.90
2023-03-04T18:04:30.320Z,67.70
2023-03-04T18:06:58.549Z,66.90
2023-03-04T18:09:26.865Z,66.90
2023-03-04T18:11:54.914Z,66.90
2023-03-04T18:14:23.486Z,67.00
2023-03-04T18:16:51.586Z,66.90
2023-03-04T18:19:21.010Z,66.90
2023-03-04T18:21:49.107Z,67.00
2023-03-04T18:24:17.291Z,67.00
2023-03-04T18:26:45.844Z,66.90
2023-03-04T18:29:13.895Z,66.90
2023-03-04T18:31:42.628Z,67.00
2023-03-04T18:34:12.064Z,67.10
2023-03-04T18:36:42.033Z,67.10
2023-03-04T18:39:10.600Z,67.10
2023-03-04T18:41:38.736Z,67.10
2023-03-04T18:44:09.790Z,67.10
2023-03-04T18:46:43.312Z,67.00
2023-03-04T18:49:13.633Z,67.10
2023-03-04T18:51:43.393Z,67.20
2023-03-04T18:54:12.103Z,67.10
2023-03-04T18:56:42.904Z,67.10
2023-03-04T18:59:16.537Z,67.20
2023-03-04T19:01:45.285Z,67.10
2023-03-04T19:04:14.041Z,67.10
2023-03-04T19:06:44.144Z,67.10
2023-03-04T19:09:12.200Z,67.10
2023-03-04T19:11:40.767Z,67.20
2023-03-04T19:14:08.953Z,67.30
2023-03-04T19:16:37.091Z,67.10
2023-03-04T19:19:05.778Z,67.10
2023-03-04T19:21:38.195Z,67.20
2023-03-04T19:24:08.999Z,67.30
2023-03-04T19:26:37.844Z,67.30
2023-03-04T19:29:07.636Z,67.20
2023-03-04T19:31:40.969Z,67.30
2023-03-04T19:34:09.856Z,67.30
2023-03-04T19:36:38.402Z,67.20
2023-03-04T19:39:10.132Z,67.30
2023-03-04T19:41:38.249Z,68.30
2023-03-04T19:44:06.902Z,67.30
2023-03-04T19:46:35.133Z,67.30
2023-03-04T19:49:05.137Z,67.30
2023-03-04T19:51:35.257Z,67.30
2023-03-04T19:54:04.044Z,67.40
2023-03-04T19:56:33.986Z,67.50
2023-03-04T19:59:02.947Z,67.40
2023-03-04T20:01:33.323Z,67.40
2023-03-04T20:04:03.647Z,67.40
2023-03-04T20:06:32.245Z,67.50
2023-03-04T20:09:02.631Z,67.40
2023-03-04T20:11:32.920Z,67.40
2023-03-04T20:14:03.664Z,67.40
2023-03-04T20:16:33.690Z,67.50
2023-03-04T20:19:01.914Z,67.50
2023-03-04T20:21:33.215Z,67.40
2023-03-04T20:24:01.920Z,67.40
2023-03-04T20:26:31.485Z,67.50
2023-03-04T20:29:01.331Z,67.50
2023-03-04T20:31:32.363Z,67.60
2023-03-04T20:34:01.268Z,67.60
2023-03-04T20:36:30.788Z,67.60
2023-03-04T20:39:06.737Z,67.60
2023-03-04T20:41:41.337Z,67.70
2023-03-04T20:44:11.258Z,67.60
2023-03-04T20:46:41.998Z,67.60
2023-03-04T20:49:13.046Z,67.70
2023-03-04T20:51:41.272Z,67.60
2023-03-04T20:54:10.574Z,67.70
2023-03-04T20:56:39.155Z,67.60
2023-03-04T21:02:57.075Z,67.80
2023-03-04T21:05:25.113Z,67.60
2023-03-04T21:07:55.424Z,67.60
2023-03-04T21:10:23.489Z,67.80
2023-03-04T21:12:51.581Z,67.70
2023-03-04T21:15:19.862Z,67.80
2023-03-04T21:17:48.160Z,67.90
2023-03-04T21:20:17.647Z,67.80
2023-03-04T21:22:46.186Z,67.90
2023-03-04T21:25:14.761Z,67.90
2023-03-04T21:27:43.289Z,67.90
2023-03-04T21:30:13.950Z,68.00
2023-03-04T21:32:42.494Z,68.10
2023-03-04T21:35:15.132Z,68.00
2023-03-04T21:37:44.585Z,68.00
2023-03-04T21:40:14.204Z,68.00
2023-03-04T21:42:42.298Z,68.20
2023-03-04T21:45:12.516Z,68.10
2023-03-04T21:47:41.015Z,68.40
2023-03-04T21:50:09.963Z,68.40
2023-03-04T21:52:38.507Z,68.40
2023-03-04T21:55:08.710Z,68.10
2023-03-04T21:57:36.833Z,68.30
2023-03-04T22:00:06.717Z,68.30
2023-03-04T22:02:35.348Z,68.30
2023-03-04T22:05:03.458Z,68.20
2023-03-04T22:07:32.078Z,68.30
2023-03-04T22:10:00.741Z,68.30
2023-03-04T22:12:30.289Z,68.40
2023-03-04T22:14:59.044Z,68.40
2023-03-04T22:17:27.228Z,68.40
2023-03-04T22:19:56.099Z,68.50
2023-03-04T22:22:24.187Z,68.50
2023-03-04T22:24:52.874Z,68.50
2023-03-04T22:27:22.346Z,68.50
2023-03-04T22:29:51.836Z,68.60
2023-03-04T22:32:20.413Z,68.70
2023-03-04T22:34:48.478Z,68.80
2023-03-04T22:37:17.117Z,68.80
2023-03-04T22:39:45.811Z,68.80
2023-03-04T22:42:13.904Z,68.90
2023-03-04T22:44:42.495Z,68.90
2023-03-04T22:47:12.441Z,68.90
2023-03-04T22:49:41.642Z,69.00
2023-03-04T22:52:10.241Z,69.00
2023-03-04T22:54:38.913Z,69.00
2023-03-04T22:57:07.049Z,69.00
2023-03-04T22:59:35.604Z,69.20
2023-03-04T23:02:04.181Z,69.20
2023-03-04T23:04:33.716Z,69.30
2023-03-04T23:07:02.342Z,69.40
2023-03-04T23:09:30.926Z,69.40
2023-03-04T23:11:59.496Z,68.70
2023-03-04T23:14:27.693Z,69.40
2023-03-04T23:16:56.093Z,69.60
2023-03-04T23:19:24.223Z,69.60
2023-03-04T23:21:53.709Z,69.60
2023-03-04T23:24:23.452Z,69.70
2023-03-04T23:26:52.435Z,69.70
2023-03-04T23:29:20.977Z,69.80
2023-03-04T23:31:50.425Z,69.80
2023-03-04T23:34:19.000Z,69.80
2023-03-04T23:36:47.627Z,69.80
2023-03-04T23:39:17.572Z,69.80
2023-03-04T23:41:46.275Z,70.00
2023-03-04T23:44:14.555Z,70.00
2023-03-04T23:46:43.167Z,70.10
2023-03-04T23:49:14.558Z,70.20
2023-03-04T23:51:44.338Z,70.30
2023-03-04T23:54:12.719Z,70.20
2023-03-04T23:56:42.300Z,70.30
2023-03-04T23:59:11.963Z,70.30
